Spokeville, Wisconsin
Current Conditions -  °F | °C
As of 3:54 AM on Friday 24 Oct 2014 (Local Time) from KMFI Reporting Station
Moderate Fog Moderate Fog  
Wind Chill: 44°   Ceiling: 200
Heat Index: 46°   Visibility: 0.25mi
Dew Point: 45°   Wind: 5mph
Humidity: 96%   Direction: 210°SSW
Pressure: 30.01"   Gusts: NA
Location:  44.7314°N, 90.4931°W
Report Text: KMFI 240854Z AUTO 21004KT 1/4SM FG VV002 08/07 A3001 RMK AO2 SLP168 T00780072 58002
Loading
Personal Weather Stations






























Interactive Weather Map
Tropical Storm Tracking
New forecast layout! Learn more

10-Day Weather Forecast

Advertisements
Track Severe Weather on mobile